createdAt,value
2023-04-17T00:00:20.557Z,12.70
2023-04-17T00:02:47.587Z,12.70
2023-04-17T00:05:16.829Z,12.70
2023-04-17T00:07:43.813Z,12.70
2023-04-17T00:10:11.589Z,12.70
2023-04-17T00:12:38.626Z,12.70
2023-04-17T00:15:06.461Z,12.70
2023-04-17T00:17:33.340Z,12.70
2023-04-17T00:20:00.580Z,12.70
2023-04-17T00:22:27.409Z,12.70
2023-04-17T00:24:54.205Z,12.70
2023-04-17T00:27:21.152Z,12.70
2023-04-17T00:29:47.935Z,12.60
2023-04-17T00:32:14.933Z,12.60
2023-04-17T00:34:41.804Z,12.60
2023-04-17T00:37:08.670Z,12.70
2023-04-17T00:39:35.576Z,12.60
2023-04-17T00:42:02.740Z,12.70
2023-04-17T00:44:29.735Z,12.70
2023-04-17T00:46:57.052Z,12.70
2023-04-17T00:49:23.804Z,12.60
2023-04-17T00:51:50.798Z,12.60
2023-04-17T00:54:19.195Z,12.60
2023-04-17T00:56:46.024Z,12.60
2023-04-17T00:59:13.591Z,12.60
2023-04-17T01:01:40.967Z,12.60
2023-04-17T01:04:10.146Z,12.60
2023-04-17T01:06:37.120Z,12.60
2023-04-17T01:09:04.313Z,12.60
2023-04-17T01:11:31.238Z,12.60
2023-04-17T01:13:58.028Z,12.60
2023-04-17T01:16:24.872Z,12.60
2023-04-17T01:18:51.782Z,12.60
2023-04-17T01:21:18.855Z,12.60
2023-04-17T01:23:53.243Z,12.60
2023-04-17T01:26:23.929Z,12.50
2023-04-17T01:28:52.109Z,12.50
2023-04-17T01:31:19.042Z,12.50
2023-04-17T01:33:45.890Z,12.50
2023-04-17T01:36:12.837Z,12.40
2023-04-17T01:38:39.648Z,12.40
2023-04-17T01:41:12.550Z,12.40
2023-04-17T01:43:40.573Z,12.30
2023-04-17T01:46:07.540Z,12.30
2023-04-17T01:48:34.644Z,12.30
2023-04-17T01:51:01.712Z,12.30
2023-04-17T01:53:30.678Z,12.30
2023-04-17T01:55:57.755Z,12.30
2023-04-17T01:58:24.633Z,12.30
2023-04-17T02:00:52.049Z,12.30
2023-04-17T02:03:19.344Z,12.30
2023-04-17T02:05:47.444Z,12.30
2023-04-17T02:08:17.265Z,12.30
2023-04-17T02:10:44.205Z,12.30
2023-04-17T02:13:11.251Z,12.30
2023-04-17T02:15:38.137Z,12.20
2023-04-17T02:18:08.035Z,12.20
2023-04-17T02:20:35.157Z,12.20
2023-04-17T02:23:02.396Z,12.20
2023-04-17T02:25:29.316Z,12.20
2023-04-17T02:27:56.490Z,12.10
2023-04-17T02:30:24.142Z,12.10
2023-04-17T02:32:54.141Z,12.10
2023-04-17T02:35:21.900Z,12.20
2023-04-17T02:37:48.820Z,12.10
2023-04-17T02:40:15.870Z,12.00
2023-04-17T02:42:42.727Z,12.00
2023-04-17T02:45:10.348Z,12.00
2023-04-17T02:47:37.393Z,11.90
2023-04-17T02:50:04.493Z,12.00
2023-04-17T02:52:32.840Z,11.90
2023-04-17T02:54:59.761Z,11.90
2023-04-17T02:57:26.613Z,12.00
2023-04-17T02:59:53.455Z,11.90
2023-04-17T03:02:22.977Z,11.90
2023-04-17T03:04:50.662Z,11.90
2023-04-17T03:07:23.479Z,11.80
2023-04-17T03:09:50.484Z,11.80
2023-04-17T03:12:17.365Z,11.80
2023-04-17T03:14:44.308Z,11.80
2023-04-17T03:17:11.847Z,11.70
2023-04-17T03:19:38.645Z,11.70
2023-04-17T03:22:05.823Z,11.70
2023-04-17T03:24:32.849Z,11.70
2023-04-17T03:27:00.011Z,11.60
2023-04-17T03:29:26.934Z,11.70
2023-04-17T03:31:53.770Z,11.60
2023-04-17T03:34:21.593Z,11.70
2023-04-17T03:36:48.802Z,11.70
2023-04-17T03:39:15.951Z,11.60
2023-04-17T03:41:42.755Z,11.60
2023-04-17T03:44:10.004Z,11.60
2023-04-17T03:46:38.287Z,11.50
2023-04-17T03:49:05.501Z,11.50
2023-04-17T03:51:32.336Z,11.50
2023-04-17T03:53:59.088Z,11.50
2023-04-17T03:56:26.094Z,11.50
2023-04-17T03:58:52.905Z,11.50
2023-04-17T04:01:19.842Z,11.50
2023-04-17T04:03:46.821Z,11.40
2023-04-17T04:06:13.768Z,11.40
2023-04-17T04:08:40.591Z,11.40
2023-04-17T04:11:07.455Z,11.40
2023-04-17T04:13:34.253Z,11.40
2023-04-17T04:16:01.500Z,11.40
2023-04-17T04:18:28.330Z,11.40
2023-04-17T04:20:55.302Z,11.40
2023-04-17T04:23:22.206Z,11.40
2023-04-17T04:25:49.688Z,11.40
2023-04-17T04:28:17.832Z,11.30
2023-04-17T04:30:51.039Z,11.30
2023-04-17T04:33:20.307Z,11.30
2023-04-17T04:35:51.885Z,11.30
2023-04-17T04:38:18.712Z,11.30
2023-04-17T04:40:52.267Z,11.20
2023-04-17T04:43:22.147Z,11.20
2023-04-17T04:45:49.326Z,11.10
2023-04-17T04:48:16.155Z,11.10
2023-04-17T04:50:43.019Z,11.10
2023-04-17T04:53:09.753Z,11.10
2023-04-17T04:55:36.500Z,11.10
2023-04-17T04:58:03.269Z,11.10
2023-04-17T05:00:30.236Z,11.10
2023-04-17T05:02:57.301Z,11.10
2023-04-17T05:05:25.607Z,11.10
2023-04-17T05:07:54.956Z,11.00
2023-04-17T05:10:21.812Z,11.00
2023-04-17T05:12:48.654Z,11.00
2023-04-17T05:15:15.523Z,11.00
2023-04-17T05:17:42.363Z,11.00
2023-04-17T05:20:09.654Z,11.10
2023-04-17T05:22:36.411Z,11.10
2023-04-17T05:25:03.266Z,11.10
2023-04-17T05:27:30.422Z,11.10
2023-04-17T05:29:57.204Z,11.00
2023-04-17T05:32:24.125Z,11.00
2023-04-17T05:34:51.182Z,11.00
2023-04-17T05:37:18.098Z,11.00
2023-04-17T05:39:44.941Z,11.00
2023-04-17T05:42:11.727Z,11.00
2023-04-17T05:44:39.297Z,11.10
2023-04-17T05:47:06.283Z,11.10
2023-04-17T05:49:33.166Z,11.10
2023-04-17T05:52:00.052Z,11.10
2023-04-17T05:54:29.154Z,11.10
2023-04-17T05:56:56.860Z,11.10
2023-04-17T05:59:23.788Z,11.20
2023-04-17T06:01:51.186Z,11.20
2023-04-17T06:04:18.797Z,11.30
2023-04-17T06:06:46.040Z,11.30
2023-04-17T06:09:13.145Z,11.30
2023-04-17T06:11:40.064Z,11.30
2023-04-17T06:14:07.079Z,11.40
2023-04-17T06:16:34.101Z,11.40
2023-04-17T06:19:01.131Z,11.40
2023-04-17T06:21:28.115Z,11.50
2023-04-17T06:23:55.070Z,11.60
2023-04-17T06:26:22.026Z,11.70
2023-04-17T06:28:48.974Z,11.80
2023-04-17T06:31:16.005Z,11.80
2023-04-17T06:33:43.703Z,11.80
2023-04-17T06:36:10.711Z,11.70
2023-04-17T06:38:37.684Z,11.70
2023-04-17T06:41:04.707Z,11.60
2023-04-17T06:43:31.709Z,11.60
2023-04-17T06:45:58.715Z,11.60
2023-04-17T06:48:25.685Z,11.60
2023-04-17T06:50:52.621Z,11.50
2023-04-17T06:53:19.615Z,11.40
2023-04-17T06:55:46.724Z,11.40
2023-04-17T06:58:13.935Z,11.30
2023-04-17T07:00:40.987Z,11.30
2023-04-17T07:03:08.233Z,11.30
2023-04-17T07:05:35.366Z,11.40
2023-04-17T07:08:02.327Z,11.50
2023-04-17T07:10:29.496Z,11.50
2023-04-17T07:12:56.638Z,11.60
2023-04-17T07:15:23.849Z,11.70
2023-04-17T07:17:50.810Z,11.80
2023-04-17T07:20:17.669Z,11.90
2023-04-17T07:22:44.608Z,12.10
2023-04-17T07:25:11.556Z,12.10
2023-04-17T07:27:39.466Z,12.20
2023-04-17T07:30:08.213Z,12.10
2023-04-17T07:32:35.781Z,12.10
2023-04-17T07:35:02.706Z,12.00
2023-04-17T07:37:29.753Z,11.90
2023-04-17T07:39:59.570Z,11.90
2023-04-17T07:42:26.645Z,11.80
2023-04-17T07:44:53.767Z,11.90
2023-04-17T07:47:21.010Z,11.90
2023-04-17T07:49:49.284Z,11.90
2023-04-17T07:52:18.144Z,12.10
2023-04-17T07:54:45.175Z,12.40
2023-04-17T07:57:12.142Z,12.60
2023-04-17T07:59:39.040Z,12.80
2023-04-17T08:02:06.172Z,13.00
2023-04-17T08:04:33.493Z,13.10
2023-04-17T08:07:00.788Z,13.20
2023-04-17T08:09:31.056Z,13.20
2023-04-17T08:11:58.460Z,13.10
2023-04-17T08:14:25.760Z,13.00
2023-04-17T08:16:52.987Z,13.00
2023-04-17T08:19:19.917Z,13.20
2023-04-17T08:21:50.678Z,13.40
2023-04-17T08:24:19.741Z,13.60
2023-04-17T08:26:47.730Z,13.80
2023-04-17T08:29:15.034Z,13.80
2023-04-17T08:31:42.418Z,13.80
2023-04-17T08:34:14.388Z,13.70
2023-04-17T08:36:41.835Z,13.60
2023-04-17T08:39:10.370Z,13.70
2023-04-17T08:41:45.293Z,13.80
2023-04-17T08:44:12.330Z,13.80
2023-04-17T08:46:39.309Z,13.70
2023-04-17T08:49:06.551Z,13.70
2023-04-17T08:51:33.569Z,13.70
2023-04-17T08:54:00.437Z,13.80
2023-04-17T08:56:29.138Z,13.80
2023-04-17T08:58:55.949Z,13.80
2023-04-17T09:01:22.979Z,14.00
2023-04-17T09:03:52.127Z,14.20
2023-04-17T09:06:19.360Z,14.30
2023-04-17T09:08:58.075Z,14.40
2023-04-17T09:11:25.547Z,14.60
2023-04-17T09:13:52.585Z,14.70
2023-04-17T09:16:24.675Z,14.80
2023-04-17T09:18:51.680Z,14.90
2023-04-17T09:21:18.997Z,15.10
2023-04-17T09:23:50.960Z,15.20
2023-04-17T09:26:20.099Z,15.10
2023-04-17T09:29:07.856Z,15.30
2023-04-17T09:31:34.951Z,15.20
2023-04-17T09:34:05.475Z,15.00
2023-04-17T09:36:33.761Z,14.80
2023-04-17T09:39:02.362Z,14.70
2023-04-17T09:41:31.645Z,14.60
2023-04-17T09:44:05.688Z,14.70
2023-04-17T09:46:33.338Z,14.60
2023-04-17T09:49:07.907Z,14.70
2023-04-17T09:51:34.913Z,14.60
2023-04-17T09:54:05.592Z,14.60
2023-04-17T09:56:36.462Z,14.70
2023-04-17T09:59:04.411Z,14.70
2023-04-17T10:01:32.795Z,14.70
2023-04-17T10:04:00.539Z,14.70
2023-04-17T10:06:29.923Z,14.80
2023-04-17T10:08:56.826Z,14.70
2023-04-17T10:11:25.079Z,14.70
2023-04-17T10:14:22.088Z,14.70
2023-04-17T10:16:49.340Z,14.80
2023-04-17T10:19:36.658Z,14.80
2023-04-17T10:22:18.792Z,14.80
2023-04-17T10:24:51.969Z,14.80
2023-04-17T10:27:24.855Z,14.90
2023-04-17T10:30:04.438Z,15.00
2023-04-17T10:32:31.762Z,15.10
2023-04-17T10:35:04.735Z,15.10
2023-04-17T10:37:52.923Z,15.10
2023-04-17T10:40:22.933Z,15.20
2023-04-17T10:43:22.477Z,15.20
2023-04-17T10:46:01.646Z,15.30
2023-04-17T10:48:40.980Z,15.40
2023-04-17T10:51:29.208Z,15.40
2023-04-17T10:54:02.922Z,15.60
2023-04-17T10:56:40.361Z,15.60
2023-04-17T10:59:12.326Z,15.70
2023-04-17T11:01:49.064Z,15.80
2023-04-17T11:04:25.822Z,15.90
2023-04-17T11:06:54.159Z,16.00
2023-04-17T11:09:21.781Z,16.10
2023-04-17T11:11:48.650Z,16.20
2023-04-17T11:14:17.672Z,16.40
2023-04-17T11:16:46.480Z,16.40
2023-04-17T11:19:24.018Z,16.40
2023-04-17T11:21:52.530Z,16.30
2023-04-17T11:24:23.925Z,16.40
2023-04-17T11:26:51.169Z,16.60
2023-04-17T11:29:19.378Z,16.70
2023-04-17T11:31:47.003Z,16.80
2023-04-17T11:34:14.681Z,17.10
2023-04-17T11:36:48.562Z,17.10
2023-04-17T11:39:15.912Z,17.10
2023-04-17T11:41:42.849Z,17.20
2023-04-17T11:44:10.467Z,17.40
2023-04-17T11:46:37.334Z,17.50
2023-04-17T11:49:07.463Z,17.50
2023-04-17T11:51:34.592Z,17.50
2023-04-17T11:54:01.656Z,17.60
2023-04-17T11:56:29.821Z,17.60
2023-04-17T11:58:58.016Z,17.70
2023-04-17T12:01:26.178Z,17.70
2023-04-17T12:03:57.098Z,18.00
2023-04-17T12:06:27.626Z,18.20
2023-04-17T12:08:55.661Z,18.40
2023-04-17T12:11:31.279Z,18.60
2023-04-17T12:13:58.297Z,18.60
2023-04-17T12:16:26.124Z,18.80
2023-04-17T12:18:53.763Z,18.70
2023-04-17T12:21:20.973Z,18.80
2023-04-17T12:23:48.405Z,18.80
2023-04-17T12:26:15.731Z,19.10
2023-04-17T12:28:42.816Z,19.00
2023-04-17T12:31:10.148Z,19.10
2023-04-17T12:33:37.349Z,19.20
2023-04-17T12:36:05.281Z,19.50
2023-04-17T12:38:32.250Z,19.70
2023-04-17T12:40:59.524Z,19.70
2023-04-17T12:43:26.398Z,19.90
2023-04-17T12:45:53.353Z,19.90
2023-04-17T12:48:20.663Z,20.10
2023-04-17T12:50:48.132Z,20.20
2023-04-17T12:53:15.487Z,20.40
2023-04-17T12:55:43.898Z,20.50
2023-04-17T12:58:12.168Z,20.70
2023-04-17T13:00:45.538Z,20.50
2023-04-17T13:03:12.697Z,20.60
2023-04-17T13:05:40.253Z,20.90
2023-04-17T13:08:12.557Z,20.90
2023-04-17T13:10:39.735Z,21.20
2023-04-17T13:13:07.012Z,21.30
2023-04-17T13:15:34.066Z,21.50
2023-04-17T13:18:01.138Z,21.50
2023-04-17T13:20:28.289Z,21.80
2023-04-17T13:22:56.107Z,21.70
2023-04-17T13:25:24.180Z,21.90
2023-04-17T13:27:51.100Z,21.80
2023-04-17T13:30:18.261Z,21.90
2023-04-17T13:32:45.158Z,21.80
2023-04-17T13:35:13.523Z,21.80
2023-04-17T13:37:41.384Z,21.90
2023-04-17T13:40:10.720Z,21.80
2023-04-17T13:42:37.595Z,21.60
2023-04-17T13:45:04.848Z,21.60
2023-04-17T13:47:31.774Z,21.80
2023-04-17T13:49:58.686Z,22.10
2023-04-17T13:52:25.531Z,22.30
2023-04-17T13:54:52.377Z,22.30
2023-04-17T13:57:19.359Z,22.20
2023-04-17T13:59:46.319Z,22.10
2023-04-17T14:02:13.295Z,22.50
2023-04-17T14:04:40.553Z,22.80
2023-04-17T14:07:07.578Z,23.00
2023-04-17T14:09:34.390Z,22.90
2023-04-17T14:12:02.399Z,23.00
2023-04-17T14:14:29.349Z,23.10
2023-04-17T14:16:56.719Z,23.30
2023-04-17T14:19:24.155Z,23.50
2023-04-17T14:21:50.972Z,23.50
2023-04-17T14:24:18.118Z,23.80
2023-04-17T14:26:45.000Z,23.80
2023-04-17T14:29:13.920Z,23.70
2023-04-17T14:31:41.251Z,23.60
2023-04-17T14:34:08.488Z,23.20
2023-04-17T14:36:35.968Z,23.00
2023-04-17T14:39:04.011Z,23.00
2023-04-17T14:41:34.203Z,23.30
2023-04-17T14:44:01.269Z,23.50
2023-04-17T14:46:28.332Z,23.80
2023-04-17T14:48:56.283Z,24.00
2023-04-17T14:51:24.068Z,24.40
2023-04-17T14:53:52.920Z,24.50
2023-04-17T14:56:20.216Z,24.50
2023-04-17T14:58:47.121Z,24.40
2023-04-17T15:01:13.940Z,24.30
2023-04-17T15:03:41.691Z,24.00
2023-04-17T15:06:09.914Z,23.80
2023-04-17T15:08:36.763Z,24.00
2023-04-17T15:11:03.485Z,23.80
2023-04-17T15:13:33.027Z,23.90
2023-04-17T15:15:59.969Z,24.00
2023-04-17T15:18:27.242Z,24.20
2023-04-17T15:20:53.998Z,24.50
2023-04-17T15:23:21.747Z,24.30
2023-04-17T15:25:48.646Z,24.40
2023-04-17T15:28:15.902Z,24.40
2023-04-17T15:30:42.776Z,24.30
2023-04-17T15:33:10.459Z,24.00
2023-04-17T15:35:38.010Z,24.10
2023-04-17T15:38:06.431Z,24.50
2023-04-17T15:40:33.894Z,24.40
2023-04-17T15:43:01.256Z,24.40
2023-04-17T15:45:28.083Z,24.60
2023-04-17T15:47:54.885Z,25.10
2023-04-17T15:50:21.786Z,24.30
2023-04-17T15:52:48.613Z,24.00
2023-04-17T15:55:15.783Z,23.60
2023-04-17T15:57:43.363Z,24.20
2023-04-17T16:00:10.766Z,24.20
2023-04-17T16:02:38.167Z,23.80
2023-04-17T16:05:06.467Z,23.80
2023-04-17T16:07:33.107Z,23.60
2023-04-17T16:10:00.035Z,23.60
2023-04-17T16:12:28.133Z,24.00
2023-04-17T16:14:54.953Z,24.20
2023-04-17T16:17:21.744Z,24.30
2023-04-17T16:19:50.566Z,24.00
2023-04-17T16:22:18.744Z,23.90
2023-04-17T16:24:45.475Z,23.50
2023-04-17T16:27:12.182Z,23.50
2023-04-17T16:29:38.944Z,23.50
2023-04-17T16:32:05.709Z,23.60
2023-04-17T16:34:32.460Z,23.80
2023-04-17T16:36:59.237Z,23.70
2023-04-17T16:39:25.921Z,23.60
2023-04-17T16:41:52.807Z,23.20
2023-04-17T16:44:19.735Z,22.90
2023-04-17T16:47:05.544Z,23.00
2023-04-17T16:49:33.449Z,23.30
2023-04-17T16:52:03.311Z,23.40
2023-04-17T16:54:30.113Z,23.30
2023-04-17T16:56:57.092Z,22.90
2023-04-17T16:59:24.052Z,22.70
2023-04-17T17:01:50.851Z,22.30
2023-04-17T17:04:17.627Z,22.50
2023-04-17T17:06:44.430Z,22.50
2023-04-17T17:09:11.565Z,22.50
2023-04-17T17:11:38.506Z,22.20
2023-04-17T17:14:06.529Z,21.90
2023-04-17T17:16:33.442Z,21.60
2023-04-17T17:19:00.352Z,21.40
2023-04-17T17:21:30.808Z,21.00
2023-04-17T17:23:57.592Z,20.50
2023-04-17T17:26:24.666Z,20.20
2023-04-17T17:28:53.852Z,20.10
2023-04-17T17:31:20.821Z,19.80
2023-04-17T17:33:50.175Z,19.60
2023-04-17T17:36:17.333Z,18.90
2023-04-17T17:38:44.315Z,18.20
2023-04-17T17:41:11.200Z,17.60
2023-04-17T17:43:37.978Z,17.10
2023-04-17T17:46:04.833Z,16.60
2023-04-17T17:48:31.754Z,16.50
2023-04-17T17:50:58.601Z,16.30
2023-04-17T17:53:27.059Z,16.20
2023-04-17T17:55:54.799Z,15.90
2023-04-17T17:58:21.988Z,15.90
2023-04-17T18:00:49.646Z,15.80
2023-04-17T18:03:16.971Z,15.20
2023-04-17T18:05:44.294Z,14.70
2023-04-17T18:08:11.867Z,14.40
2023-04-17T18:10:39.145Z,14.20
2023-04-17T18:13:06.146Z,14.00
2023-04-17T18:15:33.074Z,13.70
2023-04-17T18:17:59.894Z,13.80
2023-04-17T18:20:26.696Z,13.70
2023-04-17T18:22:53.759Z,13.60
2023-04-17T18:25:20.841Z,13.40
2023-04-17T18:27:47.698Z,13.30
2023-04-17T18:30:17.165Z,13.10
2023-04-17T18:32:44.974Z,13.10
2023-04-17T18:35:12.327Z,13.00
2023-04-17T18:37:40.008Z,12.80
2023-04-17T18:40:10.675Z,12.80
2023-04-17T18:42:38.113Z,12.70
2023-04-17T18:45:06.821Z,12.70
2023-04-17T18:47:33.732Z,12.60
2023-04-17T18:50:00.808Z,12.40
2023-04-17T18:52:27.707Z,12.20
2023-04-17T18:54:54.680Z,12.10
2023-04-17T18:57:21.746Z,12.10
2023-04-17T18:59:48.741Z,12.00
2023-04-17T19:02:15.675Z,11.90
2023-04-17T19:04:42.434Z,11.80
2023-04-17T19:07:09.782Z,11.70
2023-04-17T19:09:36.791Z,11.70
2023-04-17T19:12:04.223Z,11.70
2023-04-17T19:14:34.443Z,11.70
2023-04-17T19:17:02.714Z,11.70
2023-04-17T19:19:35.377Z,11.70
2023-04-17T19:22:03.890Z,11.60
2023-04-17T19:24:32.324Z,11.60
2023-04-17T19:27:00.255Z,11.60
2023-04-17T19:29:27.641Z,11.60
2023-04-17T19:31:54.865Z,11.50
2023-04-17T19:34:22.905Z,11.50
2023-04-17T19:36:50.003Z,11.50
2023-04-17T19:39:17.355Z,11.40
2023-04-17T19:41:50.808Z,11.30
2023-04-17T19:44:18.124Z,11.20
2023-04-17T19:46:45.379Z,11.10
2023-04-17T19:49:12.944Z,11.10
2023-04-17T19:51:40.452Z,11.00
2023-04-17T19:54:08.083Z,11.00
2023-04-17T19:56:35.005Z,11.00
2023-04-17T19:59:02.728Z,11.00
2023-04-17T20:01:32.741Z,11.00
2023-04-17T20:04:00.112Z,11.10
2023-04-17T20:06:27.219Z,11.20
2023-04-17T20:08:56.333Z,11.10
2023-04-17T20:11:24.541Z,11.10
2023-04-17T20:13:52.393Z,11.10
2023-04-17T20:16:19.436Z,11.10
2023-04-17T20:18:46.255Z,11.00
2023-04-17T20:21:14.028Z,11.00
2023-04-17T20:23:41.392Z,11.00
2023-04-17T20:26:08.410Z,11.10
2023-04-17T20:28:35.393Z,11.10
2023-04-17T20:31:03.490Z,11.10
2023-04-17T20:33:30.601Z,11.10
2023-04-17T20:35:57.573Z,11.10
2023-04-17T20:38:24.487Z,11.10
2023-04-17T20:40:51.454Z,11.10
2023-04-17T20:43:18.280Z,11.20
2023-04-17T20:45:45.397Z,11.10
2023-04-17T20:48:12.403Z,11.10
2023-04-17T20:50:39.415Z,11.00
2023-04-17T20:53:06.304Z,10.90
2023-04-17T20:55:33.325Z,10.90
2023-04-17T20:58:00.414Z,10.90
2023-04-17T21:00:27.313Z,10.90
2023-04-17T21:02:54.387Z,10.80
2023-04-17T21:05:21.338Z,10.90
2023-04-17T21:07:49.482Z,10.80
2023-04-17T21:10:17.793Z,10.70
2023-04-17T21:12:44.880Z,10.70
2023-04-17T21:15:11.985Z,10.70
2023-04-17T21:17:39.037Z,10.60
2023-04-17T21:20:06.427Z,10.60
2023-04-17T21:22:33.370Z,10.60
2023-04-17T21:25:00.292Z,10.60
2023-04-17T21:27:27.134Z,10.60
2023-04-17T21:29:54.220Z,10.50
2023-04-17T21:32:21.197Z,10.40
2023-04-17T21:34:48.102Z,10.40
2023-04-17T21:37:15.302Z,10.30
2023-04-17T21:39:42.318Z,10.30
2023-04-17T21:42:10.027Z,10.30
2023-04-17T21:44:36.947Z,10.30
2023-04-17T21:47:03.987Z,10.40
2023-04-17T21:49:30.910Z,10.40
2023-04-17T21:51:57.855Z,10.50
2023-04-17T21:54:27.303Z,10.40
2023-04-17T21:56:54.873Z,10.50
2023-04-17T21:59:21.931Z,10.50
2023-04-17T22:01:48.891Z,10.40
2023-04-17T22:04:16.026Z,10.40
2023-04-17T22:06:42.973Z,10.40
2023-04-17T22:09:10.097Z,10.40
2023-04-17T22:11:38.086Z,10.40
2023-04-17T22:14:05.076Z,10.40
2023-04-17T22:16:31.997Z,10.30
2023-04-17T22:19:01.321Z,10.40
2023-04-17T22:21:59.158Z,10.40
2023-04-17T22:24:56.279Z,10.30
2023-04-17T22:27:23.114Z,10.30
2023-04-17T22:29:49.974Z,10.40
2023-04-17T22:32:16.947Z,10.30
2023-04-17T22:34:50.718Z,10.30
2023-04-17T22:37:18.534Z,10.30
2023-04-17T22:39:45.501Z,10.20
2023-04-17T22:42:12.320Z,10.20
2023-04-17T22:44:39.136Z,10.20
2023-04-17T22:47:06.116Z,10.20
2023-04-17T22:49:38.076Z,10.20
2023-04-17T22:52:06.227Z,10.20
2023-04-17T22:54:33.929Z,10.20
2023-04-17T22:57:02.309Z,10.10
2023-04-17T22:59:30.142Z,10.10
2023-04-17T23:01:57.274Z,10.20
2023-04-17T23:04:24.543Z,10.20
2023-04-17T23:06:51.395Z,10.10
2023-04-17T23:09:18.354Z,10.10
2023-04-17T23:11:45.178Z,10.10
2023-04-17T23:14:12.393Z,10.00
2023-04-17T23:16:39.522Z,10.00
2023-04-17T23:19:06.507Z,10.00
2023-04-17T23:21:33.661Z,10.00
2023-04-17T23:24:00.526Z,10.00
2023-04-17T23:26:27.482Z,10.00
2023-04-17T23:28:54.262Z,10.00
2023-04-17T23:31:21.313Z,9.90
2023-04-17T23:33:48.296Z,9.80
2023-04-17T23:36:15.244Z,9.80
2023-04-17T23:38:42.092Z,9.80
2023-04-17T23:41:08.935Z,9.80
2023-04-17T23:43:36.106Z,9.80
2023-04-17T23:46:02.983Z,9.70
2023-04-17T23:48:29.828Z,9.70
2023-04-17T23:50:56.713Z,9.60
2023-04-17T23:53:23.685Z,9.60
2023-04-17T23:55:51.165Z,9.60
2023-04-17T23:58:18.010Z,9.60
